createdAt,value
2022-08-25T00:02:55.450Z,83.51
2022-08-25T00:06:03.459Z,83.47
2022-08-25T00:09:15.627Z,84.05
2022-08-25T00:12:22.348Z,83.93
2022-08-25T00:15:28.763Z,83.86
2022-08-25T00:18:37.534Z,83.80
2022-08-25T00:21:43.540Z,84.11
2022-08-25T00:24:53.325Z,84.27
2022-08-25T00:27:59.384Z,84.46
2022-08-25T00:31:08.073Z,84.63
2022-08-25T00:34:16.841Z,84.46
2022-08-25T00:37:23.727Z,84.59
2022-08-25T00:40:33.443Z,84.52
2022-08-25T00:43:49.265Z,84.59
2022-08-25T00:46:57.252Z,84.39
2022-08-25T00:50:07.133Z,84.57
2022-08-25T00:53:14.938Z,84.77
2022-08-25T00:56:25.887Z,84.89
2022-08-25T00:59:32.377Z,84.72
2022-08-25T01:02:39.238Z,84.59
2022-08-25T01:05:46.929Z,84.48
2022-08-25T01:08:54.880Z,84.43
2022-08-25T01:12:04.405Z,84.40
2022-08-25T01:15:13.859Z,84.26
2022-08-25T01:18:21.019Z,84.31
2022-08-25T01:21:34.536Z,84.18
2022-08-25T01:24:44.029Z,84.75
2022-08-25T01:27:50.789Z,84.77
2022-08-25T01:30:56.882Z,84.80
2022-08-25T01:34:04.281Z,85.00
2022-08-25T01:37:15.904Z,85.00
2022-08-25T01:40:23.340Z,85.49
2022-08-25T01:43:34.757Z,85.62
2022-08-25T01:46:41.739Z,85.74
2022-08-25T01:49:47.845Z,85.63
2022-08-25T01:53:03.231Z,85.62
2022-08-25T01:56:13.125Z,85.51
2022-08-25T01:59:24.021Z,85.01
2022-08-25T02:02:31.706Z,84.80
2022-08-25T02:05:39.849Z,84.94
2022-08-25T02:08:49.268Z,84.83
2022-08-25T02:11:57.078Z,85.02
2022-08-25T02:15:03.235Z,85.09
2022-08-25T02:18:10.857Z,85.04
2022-08-25T02:21:17.092Z,85.43
2022-08-25T02:24:27.376Z,85.96
2022-08-25T02:27:33.541Z,86.03
2022-08-25T02:30:42.753Z,86.10
2022-08-25T02:33:48.983Z,86.04
2022-08-25T02:36:56.210Z,86.16
2022-08-25T02:40:07.707Z,86.28
2022-08-25T02:43:13.661Z,86.15
2022-08-25T02:46:23.019Z,86.01
2022-08-25T02:49:29.014Z,85.42
2022-08-25T02:52:35.872Z,85.61
2022-08-25T02:55:44.767Z,85.70
2022-08-25T02:58:51.618Z,85.94
2022-08-25T03:01:57.494Z,85.75
2022-08-25T03:05:04.553Z,85.36
2022-08-25T03:08:12.365Z,85.70
2022-08-25T03:11:22.471Z,85.80
2022-08-25T03:14:28.344Z,85.90
2022-08-25T03:17:36.014Z,85.74
2022-08-25T03:20:43.298Z,85.27
2022-08-25T03:23:50.045Z,85.81
2022-08-25T03:26:56.558Z,85.99
2022-08-25T03:30:03.711Z,86.13
2022-08-25T03:33:09.615Z,85.79
2022-08-25T03:36:16.774Z,85.71
2022-08-25T03:39:25.923Z,85.58
2022-08-25T03:42:35.571Z,84.98
2022-08-25T03:45:43.536Z,84.92
2022-08-25T03:48:50.435Z,85.37
2022-08-25T03:51:58.028Z,85.49
2022-08-25T03:55:07.115Z,85.72
2022-08-25T03:58:15.851Z,85.56
2022-08-25T04:01:23.132Z,85.05
2022-08-25T04:04:29.057Z,85.74
2022-08-25T04:07:35.866Z,85.82
2022-08-25T04:10:41.850Z,86.32
2022-08-25T04:13:52.121Z,86.61
2022-08-25T04:16:58.151Z,86.40
2022-08-25T04:20:06.973Z,86.46
2022-08-25T04:23:13.828Z,86.58
2022-08-25T04:26:28.322Z,86.63
2022-08-25T04:29:37.287Z,86.77
2022-08-25T04:32:44.037Z,86.79
2022-08-25T04:35:52.012Z,86.82
2022-08-25T04:38:58.951Z,86.50
2022-08-25T04:42:06.273Z,85.96
2022-08-25T04:45:15.918Z,85.62
2022-08-25T04:48:22.211Z,85.84
2022-08-25T04:51:31.539Z,85.24
2022-08-25T04:54:37.575Z,85.19
2022-08-25T04:57:44.346Z,84.87
2022-08-25T05:00:53.406Z,85.12
2022-08-25T05:04:03.239Z,84.45
2022-08-25T05:07:09.668Z,84.59
2022-08-25T05:10:17.244Z,84.58
2022-08-25T05:13:23.759Z,84.18
2022-08-25T05:16:34.441Z,84.55
2022-08-25T05:19:40.777Z,83.54
2022-08-25T05:22:49.198Z,83.00
2022-08-25T05:25:57.271Z,83.48
2022-08-25T05:29:07.918Z,82.96
2022-08-25T05:32:16.687Z,83.36
2022-08-25T05:35:24.997Z,82.53
2022-08-25T05:38:31.707Z,81.93
2022-08-25T05:41:38.591Z,81.49
2022-08-25T05:44:44.752Z,82.26
2022-08-25T05:47:54.421Z,81.71
2022-08-25T05:51:03.038Z,81.91
2022-08-25T05:54:10.009Z,81.30
2022-08-25T05:57:15.970Z,80.38
2022-08-25T06:00:23.022Z,80.39
2022-08-25T06:03:29.367Z,79.64
2022-08-25T06:06:36.565Z,79.65
2022-08-25T06:09:46.445Z,79.81
2022-08-25T06:12:53.254Z,79.64
2022-08-25T06:16:09.380Z,79.43
2022-08-25T06:19:19.153Z,80.01
2022-08-25T06:22:25.627Z,79.69
2022-08-25T06:25:34.123Z,79.02
2022-08-25T06:28:40.140Z,78.53
2022-08-25T06:31:50.178Z,77.92
2022-08-25T06:34:59.206Z,77.96
2022-08-25T06:38:06.953Z,77.50
2022-08-25T06:41:14.184Z,77.29
2022-08-25T06:44:20.876Z,76.26
2022-08-25T06:47:27.495Z,77.12
2022-08-25T06:50:37.038Z,76.46
2022-08-25T06:53:43.231Z,75.64
2022-08-25T06:56:50.047Z,75.35
2022-08-25T06:59:56.710Z,74.63
2022-08-25T07:03:07.168Z,74.64
2022-08-25T07:06:16.591Z,74.50
2022-08-25T07:09:25.288Z,74.42
2022-08-25T07:12:31.211Z,73.20
2022-08-25T07:15:41.696Z,73.00
2022-08-25T07:18:49.079Z,72.89
2022-08-25T07:21:58.635Z,73.51
2022-08-25T07:25:06.107Z,73.20
2022-08-25T07:28:12.968Z,72.70
2022-08-25T07:31:19.554Z,71.86
2022-08-25T07:34:56.611Z,72.12
2022-08-25T07:38:06.911Z,72.06
2022-08-25T07:41:17.282Z,71.02
2022-08-25T07:44:24.756Z,71.52
2022-08-25T07:47:35.155Z,71.01
2022-08-25T07:50:45.493Z,70.61
2022-08-25T07:53:55.274Z,70.87
2022-08-25T07:57:04.171Z,70.65
2022-08-25T08:00:12.189Z,70.23
2022-08-25T08:03:29.394Z,70.39
2022-08-25T08:06:45.050Z,70.46
2022-08-25T08:10:18.961Z,70.44
2022-08-25T08:13:23.847Z,70.65
2022-08-25T08:16:33.802Z,70.57
2022-08-25T08:19:44.826Z,70.21
2022-08-25T08:22:51.344Z,69.83
2022-08-25T08:26:01.172Z,70.08
2022-08-25T08:29:07.949Z,69.59
2022-08-25T08:32:18.775Z,69.91
2022-08-25T08:35:24.779Z,69.36
2022-08-25T08:38:32.350Z,68.86
2022-08-25T08:42:11.535Z,69.19
2022-08-25T08:45:40.654Z,69.08
2022-08-25T08:49:04.358Z,69.36
2022-08-25T08:52:13.358Z,69.17
2022-08-25T08:55:30.635Z,69.17
2022-08-25T08:58:45.569Z,67.91
2022-08-25T09:02:03.143Z,68.42
2022-08-25T09:05:15.151Z,67.61
2022-08-25T09:08:21.540Z,68.06
2022-08-25T09:11:40.044Z,68.08
2022-08-25T09:15:12.573Z,68.32
2022-08-25T09:18:30.613Z,67.83
2022-08-25T09:21:43.884Z,67.96
2022-08-25T09:25:00.132Z,67.69
2022-08-25T09:28:11.433Z,67.60
2022-08-25T09:31:29.587Z,67.34
2022-08-25T09:34:37.764Z,67.27
2022-08-25T09:37:44.776Z,67.28
2022-08-25T09:40:53.808Z,66.66
2022-08-25T09:44:03.233Z,66.23
2022-08-25T09:47:24.543Z,66.16
2022-08-25T09:50:36.159Z,65.24
2022-08-25T09:53:55.101Z,65.41
2022-08-25T09:57:08.557Z,65.18
2022-08-25T10:00:23.413Z,65.26
2022-08-25T10:03:36.348Z,65.18
2022-08-25T10:06:48.240Z,64.71
2022-08-25T10:09:57.845Z,63.88
2022-08-25T10:13:07.075Z,64.22
2022-08-25T10:16:27.005Z,63.90
2022-08-25T10:19:38.742Z,64.10
2022-08-25T10:22:50.297Z,63.78
2022-08-25T10:26:01.832Z,63.72
2022-08-25T10:29:27.063Z,63.72
2022-08-25T10:32:43.370Z,63.47
2022-08-25T10:36:03.088Z,63.33
2022-08-25T10:39:33.869Z,63.40
2022-08-25T10:42:48.500Z,63.69
2022-08-25T10:46:10.299Z,63.09
2022-08-25T10:49:23.094Z,62.28
2022-08-25T10:52:40.119Z,61.54
2022-08-25T10:55:56.277Z,61.83
2022-08-25T10:59:42.767Z,61.49
2022-08-25T11:03:12.044Z,61.15
2022-08-25T11:06:23.560Z,61.51
2022-08-25T11:09:40.186Z,61.12
2022-08-25T11:12:49.061Z,61.00
2022-08-25T11:16:17.183Z,60.76
2022-08-25T11:19:27.465Z,60.00
2022-08-25T11:22:40.881Z,60.24
2022-08-25T11:25:54.134Z,59.33
2022-08-25T11:29:11.360Z,59.58
2022-08-25T11:32:22.792Z,59.74
2022-08-25T11:35:33.064Z,59.28
2022-08-25T11:38:51.105Z,59.29
2022-08-25T11:42:17.771Z,57.52
2022-08-25T11:45:44.120Z,57.04
2022-08-25T11:49:04.744Z,56.68
2022-08-25T11:52:46.147Z,55.87
2022-08-25T11:55:56.227Z,55.21
2022-08-25T11:59:06.969Z,54.27
2022-08-25T12:02:34.236Z,52.55
2022-08-25T12:06:21.635Z,51.61
2022-08-25T12:09:28.621Z,52.56
2022-08-25T12:12:41.598Z,52.21
2022-08-25T12:16:03.103Z,53.37
2022-08-25T12:19:34.041Z,52.46
2022-08-25T12:23:03.071Z,52.36
2022-08-25T12:26:17.785Z,53.01
2022-08-25T12:29:33.565Z,51.82
2022-08-25T12:32:58.729Z,51.43
2022-08-25T12:36:11.126Z,51.43
2022-08-25T12:39:24.215Z,52.03
2022-08-25T12:42:38.340Z,51.36
2022-08-25T12:45:49.364Z,51.74
2022-08-25T12:49:04.151Z,50.98
2022-08-25T12:52:15.243Z,50.50
2022-08-25T12:55:25.173Z,50.67
2022-08-25T12:58:58.981Z,50.71
2022-08-25T13:02:35.307Z,50.89
2022-08-25T13:06:13.147Z,50.74
2022-08-25T13:10:01.038Z,51.09
2022-08-25T13:13:16.500Z,49.19
2022-08-25T13:16:29.669Z,48.90
2022-08-25T13:19:36.065Z,49.46
2022-08-25T13:22:48.524Z,49.08
2022-08-25T13:25:58.367Z,48.78
2022-08-25T13:29:17.967Z,47.97
2022-08-25T13:32:32.370Z,48.39
2022-08-25T13:35:41.230Z,48.23
2022-08-25T13:38:57.624Z,47.47
2022-08-25T13:42:07.474Z,46.99
2022-08-25T13:45:18.358Z,46.40
2022-08-25T13:48:36.569Z,45.53
2022-08-25T13:51:54.767Z,45.34
2022-08-25T13:55:06.143Z,45.57
2022-08-25T13:58:24.332Z,45.02
2022-08-25T14:01:48.721Z,44.99
2022-08-25T14:04:55.681Z,45.52
2022-08-25T14:08:16.117Z,44.48
2022-08-25T14:11:37.621Z,44.85
2022-08-25T14:14:46.021Z,44.57
2022-08-25T14:18:06.554Z,44.93
2022-08-25T14:21:14.727Z,44.93
2022-08-25T14:24:22.881Z,44.44
2022-08-25T14:27:38.746Z,43.87
2022-08-25T14:30:52.485Z,43.95
2022-08-25T14:34:03.062Z,43.88
2022-08-25T14:37:15.594Z,44.28
2022-08-25T14:40:23.130Z,44.39
2022-08-25T14:43:32.386Z,43.73
2022-08-25T14:46:46.217Z,43.89
2022-08-25T14:49:52.840Z,44.07
2022-08-25T14:53:00.093Z,44.13
2022-08-25T14:56:10.298Z,44.27
2022-08-25T14:59:20.145Z,44.03
2022-08-25T15:02:29.548Z,42.68
2022-08-25T15:05:37.640Z,43.86
2022-08-25T15:08:59.554Z,43.82
2022-08-25T15:12:07.191Z,43.22
2022-08-25T15:15:17.664Z,43.09
2022-08-25T15:18:26.065Z,43.19
2022-08-25T15:21:32.456Z,42.72
2022-08-25T15:24:39.294Z,42.87
2022-08-25T15:27:45.712Z,42.95
2022-08-25T15:30:55.978Z,42.91
2022-08-25T15:34:03.042Z,42.68
2022-08-25T15:37:12.104Z,42.29
2022-08-25T15:40:19.188Z,42.06
2022-08-25T15:43:26.370Z,42.35
2022-08-25T15:46:35.732Z,42.62
2022-08-25T15:49:43.377Z,42.44
2022-08-25T15:52:49.774Z,41.87
2022-08-25T15:55:57.695Z,41.19
2022-08-25T15:59:10.534Z,40.89
2022-08-25T16:02:20.186Z,40.05
2022-08-25T16:05:26.359Z,39.92
2022-08-25T16:08:34.077Z,39.52
2022-08-25T16:11:43.813Z,39.51
2022-08-25T16:14:51.156Z,38.93
2022-08-25T16:18:04.769Z,39.02
2022-08-25T16:21:13.199Z,38.93
2022-08-25T16:24:20.802Z,39.25
2022-08-25T16:27:28.035Z,39.31
2022-08-25T16:30:50.256Z,38.71
2022-08-25T16:34:03.150Z,39.32
2022-08-25T16:37:09.338Z,38.93
2022-08-25T16:40:19.151Z,39.16
2022-08-25T16:43:26.645Z,39.88
2022-08-25T16:46:34.031Z,40.30
2022-08-25T16:49:43.463Z,40.79
2022-08-25T16:53:08.071Z,41.34
2022-08-25T16:56:14.371Z,42.00
2022-08-25T16:59:21.387Z,42.46
2022-08-25T17:02:29.999Z,42.56
2022-08-25T17:05:45.734Z,43.30
2022-08-25T17:08:52.738Z,43.65
2022-08-25T17:11:59.785Z,44.53
2022-08-25T17:15:08.115Z,44.40
2022-08-25T17:18:14.922Z,45.48
2022-08-25T17:21:27.053Z,45.86
2022-08-25T17:24:33.982Z,46.28
2022-08-25T17:27:41.308Z,46.46
2022-08-25T17:30:49.659Z,46.94
2022-08-25T17:33:56.221Z,47.64
2022-08-25T17:37:07.018Z,48.21
2022-08-25T17:40:14.598Z,48.47
2022-08-25T17:43:21.378Z,48.35
2022-08-25T17:46:27.562Z,49.37
2022-08-25T17:49:34.613Z,48.96
2022-08-25T17:52:43.908Z,49.65
2022-08-25T17:55:51.452Z,50.03
2022-08-25T17:58:59.109Z,50.35
2022-08-25T18:02:06.733Z,50.76
2022-08-25T18:05:14.301Z,51.44
2022-08-25T18:08:32.085Z,51.59
2022-08-25T18:11:41.366Z,51.95
2022-08-25T18:14:49.391Z,52.02
2022-08-25T18:17:57.523Z,52.53
2022-08-25T18:21:06.887Z,52.46
2022-08-25T18:24:16.825Z,53.03
2022-08-25T18:27:23.778Z,53.22
2022-08-25T18:30:32.006Z,53.28
2022-08-25T18:33:41.838Z,54.07
2022-08-25T18:36:47.884Z,53.88
2022-08-25T18:40:13.846Z,54.01
2022-08-25T18:43:19.917Z,54.45
2022-08-25T18:46:27.448Z,54.47
2022-08-25T18:49:33.486Z,54.72
2022-08-25T18:52:40.739Z,54.77
2022-08-25T18:55:49.569Z,54.93
2022-08-25T18:58:56.482Z,55.24
2022-08-25T19:02:03.198Z,55.67
2022-08-25T19:05:10.807Z,55.72
2022-08-25T19:08:21.940Z,55.72
2022-08-25T19:11:32.115Z,56.31
2022-08-25T19:14:39.278Z,56.25
2022-08-25T19:17:46.831Z,56.67
2022-08-25T19:20:53.116Z,56.72
2022-08-25T19:23:59.875Z,56.73
2022-08-25T19:27:12.958Z,56.56
2022-08-25T19:30:22.007Z,57.38
2022-08-25T19:33:42.058Z,56.81
2022-08-25T19:36:51.620Z,57.25
2022-08-25T19:39:58.322Z,57.19
2022-08-25T19:43:10.299Z,57.53
2022-08-25T19:46:19.880Z,57.56
2022-08-25T19:49:31.441Z,57.44
2022-08-25T19:52:40.094Z,58.21
2022-08-25T19:55:50.103Z,58.17
2022-08-25T19:58:59.193Z,57.86
2022-08-25T20:02:08.233Z,57.91
2022-08-25T20:05:23.676Z,58.27
2022-08-25T20:08:31.227Z,58.09
2022-08-25T20:11:38.125Z,58.80
2022-08-25T20:14:48.808Z,58.75
2022-08-25T20:17:56.642Z,58.84
2022-08-25T20:21:03.663Z,59.19
2022-08-25T20:24:26.620Z,59.21
2022-08-25T20:27:41.195Z,59.13
2022-08-25T20:30:50.164Z,58.79
2022-08-25T20:34:02.835Z,58.84
2022-08-25T20:37:09.197Z,59.32
2022-08-25T20:40:20.788Z,59.94
2022-08-25T20:43:31.940Z,59.48
2022-08-25T20:46:41.744Z,59.46
2022-08-25T20:49:50.347Z,59.52
2022-08-25T20:52:59.372Z,59.50
2022-08-25T20:56:11.263Z,60.09
2022-08-25T20:59:18.430Z,59.84
2022-08-25T21:02:29.612Z,60.42
2022-08-25T21:05:37.109Z,59.86
2022-08-25T21:08:45.154Z,60.65
2022-08-25T21:11:55.480Z,60.50
2022-08-25T21:15:03.155Z,60.76
2022-08-25T21:18:12.693Z,60.72
2022-08-25T21:21:19.063Z,60.56
2022-08-25T21:24:26.102Z,60.93
2022-08-25T21:27:32.011Z,60.87
2022-08-25T21:30:44.788Z,61.18
2022-08-25T21:33:57.103Z,61.56
2022-08-25T21:37:04.165Z,61.58
2022-08-25T21:40:11.153Z,61.74
2022-08-25T21:43:18.716Z,61.63
2022-08-25T21:46:26.495Z,61.84
2022-08-25T21:49:37.235Z,61.79
2022-08-25T21:52:43.815Z,61.81
2022-08-25T21:55:50.641Z,62.26
2022-08-25T21:58:56.744Z,62.20
2022-08-25T22:02:07.745Z,62.67
2022-08-25T22:05:16.967Z,62.64
2022-08-25T22:08:23.956Z,62.63
2022-08-25T22:11:37.128Z,63.14
2022-08-25T22:14:43.911Z,63.28
2022-08-25T22:17:50.571Z,63.61
2022-08-25T22:21:00.762Z,63.78
2022-08-25T22:24:13.989Z,64.09
2022-08-25T22:27:23.286Z,64.14
2022-08-25T22:30:30.031Z,64.18
2022-08-25T22:33:37.532Z,64.39
2022-08-25T22:36:49.935Z,64.36
2022-08-25T22:39:57.423Z,64.72
2022-08-25T22:43:03.674Z,64.81
2022-08-25T22:46:13.559Z,64.85
2022-08-25T22:49:23.155Z,65.16
2022-08-25T22:52:33.760Z,65.04
2022-08-25T22:55:46.438Z,65.14
2022-08-25T22:58:53.333Z,65.24
2022-08-25T23:01:59.392Z,65.41
2022-08-25T23:05:07.994Z,65.67
2022-08-25T23:11:43.675Z,66.13
2022-08-25T23:14:50.520Z,66.31
2022-08-25T23:17:57.336Z,66.73
2022-08-25T23:21:24.284Z,66.77
2022-08-25T23:24:34.643Z,67.16
2022-08-25T23:27:40.578Z,67.08
2022-08-25T23:30:47.839Z,67.02
2022-08-25T23:34:03.695Z,67.29
2022-08-25T23:37:10.884Z,67.67
2022-08-25T23:40:19.780Z,67.52
2022-08-25T23:43:27.186Z,67.77
2022-08-25T23:46:35.218Z,67.58
2022-08-25T23:49:42.326Z,67.75
2022-08-25T23:52:48.903Z,68.09
2022-08-25T23:56:00.744Z,68.12
2022-08-25T23:59:08.873Z,68.29
